createdAt,value
2023-09-06T00:02:10.191Z,101170.75
2023-09-06T00:05:12.787Z,101168.53
2023-09-06T00:08:17.578Z,101173.13
2023-09-06T00:11:20.130Z,101173.72
2023-09-06T00:14:22.641Z,101178.50
2023-09-06T00:17:25.093Z,101181.19
2023-09-06T00:20:27.609Z,101184.19
2023-09-06T00:23:31.101Z,101184.22
2023-09-06T00:26:33.498Z,101191.16
2023-09-06T00:29:35.917Z,101191.97
2023-09-06T00:32:38.402Z,101198.75
2023-09-06T00:35:41.143Z,101203.31
2023-09-06T00:38:43.568Z,101200.97
2023-09-06T00:41:46.163Z,101199.56
2023-09-06T00:44:49.538Z,101187.88
2023-09-06T00:47:52.465Z,101186.47
2023-09-06T00:50:57.168Z,101181.09
2023-09-06T00:54:01.137Z,101182.19
2023-09-06T00:57:03.970Z,101184.72
2023-09-06T01:00:07.909Z,101187.72
2023-09-06T01:03:10.688Z,101181.41
2023-09-06T01:06:24.350Z,101183.78
2023-09-06T01:09:30.673Z,101174.94
2023-09-06T01:12:35.670Z,101168.63
2023-09-06T01:15:42.982Z,101167.22
2023-09-06T01:18:45.569Z,101171.31
2023-09-06T01:21:59.585Z,101168.44
2023-09-06T01:25:03.505Z,101166.41
2023-09-06T01:28:06.643Z,101174.16
2023-09-06T01:31:09.165Z,101164.53
2023-09-06T01:34:11.712Z,101171.94
2023-09-06T01:37:14.166Z,101170.03
2023-09-06T01:40:18.346Z,101178.22
2023-09-06T01:43:20.868Z,101169.09
2023-09-06T01:46:26.267Z,101170.19
2023-09-06T01:49:29.107Z,101168.28
2023-09-06T01:52:31.628Z,101166.41
2023-09-06T01:55:34.767Z,101167.19
2023-09-06T01:58:38.499Z,101157.25
2023-09-06T02:01:42.093Z,101169.25
2023-09-06T02:04:44.818Z,101163.56
2023-09-06T02:07:48.057Z,101160.88
2023-09-06T02:10:50.747Z,101159.94
2023-09-06T02:13:53.350Z,101163.41
2023-09-06T02:16:55.929Z,101163.22
2023-09-06T02:20:22.305Z,101159.75
2023-09-06T02:23:24.833Z,101153.75
2023-09-06T02:26:27.228Z,101153.72
2023-09-06T02:29:29.648Z,101155.66
2023-09-06T02:32:33.353Z,101157.06
2023-09-06T02:35:36.618Z,101163.06
2023-09-06T02:38:39.211Z,101163.06
2023-09-06T02:41:42.104Z,101169.53
2023-09-06T02:44:44.513Z,101173.25
2023-09-06T02:47:51.956Z,101173.91
2023-09-06T02:50:54.822Z,101174.84
2023-09-06T02:53:58.305Z,101178.75
2023-09-06T02:57:00.769Z,101185.22
2023-09-06T03:00:09.188Z,101190.75
2023-09-06T03:03:17.318Z,101191.06
2023-09-06T03:06:20.638Z,101192.63
2023-09-06T03:09:30.144Z,101198.94
2023-09-06T03:12:33.061Z,101189.47
2023-09-06T03:15:36.394Z,101192.88
2023-09-06T03:18:41.360Z,101192.38
2023-09-06T03:21:44.684Z,101196.03
2023-09-06T03:24:47.230Z,101203.69
2023-09-06T03:27:49.814Z,101205.41
2023-09-06T03:30:53.350Z,101205.34
2023-09-06T03:33:57.340Z,101197.34
2023-09-06T03:36:59.845Z,101200.84
2023-09-06T03:40:02.272Z,101198.31
2023-09-06T03:43:06.867Z,101212.81
2023-09-06T03:46:11.110Z,101208.44
2023-09-06T03:49:14.428Z,101206.81
2023-09-06T03:52:17.605Z,101205.28
2023-09-06T03:55:21.947Z,101213.19
2023-09-06T03:58:26.339Z,101202.59
2023-09-06T04:01:29.309Z,101208.53
2023-09-06T04:04:32.157Z,101209.19
2023-09-06T04:07:34.663Z,101212.34
2023-09-06T04:10:41.585Z,101205.41
2023-09-06T04:13:44.592Z,101208.84
2023-09-06T04:16:49.729Z,101219.16
2023-09-06T04:19:56.247Z,101220.25
2023-09-06T04:23:00.602Z,101218.88
2023-09-06T04:26:04.979Z,101219.59
2023-09-06T04:29:08.408Z,101219.28
2023-09-06T04:32:10.932Z,101217.84
2023-09-06T04:35:17.624Z,101224.91
2023-09-06T04:38:21.611Z,101219.56
2023-09-06T04:41:26.902Z,101225.13
2023-09-06T04:44:33.382Z,101232.66
2023-09-06T04:47:39.342Z,101238.59
2023-09-06T04:50:42.635Z,101229.69
2023-09-06T04:53:45.295Z,101232.66
2023-09-06T04:56:50.012Z,101237.06
2023-09-06T04:59:54.596Z,101230.66
2023-09-06T05:02:58.534Z,101244.25
2023-09-06T05:06:02.198Z,101240.97
2023-09-06T05:09:04.847Z,101251.84
2023-09-06T05:12:07.522Z,101251.63
2023-09-06T05:15:11.476Z,101254.38
2023-09-06T05:18:16.002Z,101257.09
2023-09-06T05:21:20.627Z,101254.63
2023-09-06T05:24:23.452Z,101256.38
2023-09-06T05:27:28.754Z,101261.91
2023-09-06T05:30:33.250Z,101260.91
2023-09-06T05:33:38.804Z,101254.50
2023-09-06T05:36:41.276Z,101260.94
2023-09-06T05:39:44.564Z,101262.41
2023-09-06T05:42:47.861Z,101263.84
2023-09-06T05:45:50.361Z,101260.44
2023-09-06T05:48:53.092Z,101256.03
2023-09-06T05:51:55.895Z,101261.56
2023-09-06T05:54:58.707Z,101263.34
2023-09-06T05:58:01.606Z,101263.84
2023-09-06T06:01:07.867Z,101258.53
2023-09-06T06:04:12.593Z,101265.31
2023-09-06T06:07:15.330Z,101270.44
2023-09-06T06:10:18.159Z,101268.50
2023-09-06T06:13:21.382Z,101274.63
2023-09-06T06:16:23.973Z,101273.69
2023-09-06T06:19:26.606Z,101271.75
2023-09-06T06:22:29.270Z,101274.13
2023-09-06T06:25:32.197Z,101275.09
2023-09-06T06:28:35.003Z,101268.66
2023-09-06T06:31:37.971Z,101277.44
2023-09-06T06:34:40.876Z,101278.38
2023-09-06T06:37:43.443Z,101272.25
2023-09-06T06:40:45.883Z,101276.47
2023-09-06T06:43:48.420Z,101277.28
2023-09-06T06:46:51.082Z,101270.38
2023-09-06T06:49:56.114Z,101277.91
2023-09-06T06:52:58.782Z,101278.44
2023-09-06T06:56:02.152Z,101282.09
2023-09-06T06:59:05.215Z,101285.97
2023-09-06T07:02:07.754Z,101283.91
2023-09-06T07:05:10.286Z,101281.69
2023-09-06T07:08:12.852Z,101275.91
2023-09-06T07:11:15.480Z,101279.97
2023-09-06T07:14:18.010Z,101279.38
2023-09-06T07:17:20.575Z,101278.97
2023-09-06T07:20:24.153Z,101276.47
2023-09-06T07:23:27.638Z,101274.53
2023-09-06T07:26:30.422Z,101282.25
2023-09-06T07:29:33.027Z,101267.09
2023-09-06T07:32:35.464Z,101265.53
2023-09-06T07:35:37.960Z,101261.72
2023-09-06T07:38:40.449Z,101261.78
2023-09-06T07:41:43.081Z,101264.13
2023-09-06T07:44:45.527Z,101257.91
2023-09-06T07:47:48.219Z,101266.41
2023-09-06T07:50:51.438Z,101259.72
2023-09-06T07:53:54.973Z,101258.38
2023-09-06T07:56:58.605Z,101260.22
2023-09-06T08:00:01.275Z,101258.41
2023-09-06T08:03:04.606Z,101259.81
2023-09-06T08:06:08.660Z,101250.84
2023-09-06T08:09:11.832Z,101262.16
2023-09-06T08:12:14.554Z,101257.81
2023-09-06T08:15:17.144Z,101256.97
2023-09-06T08:18:19.980Z,101256.75
2023-09-06T08:21:23.100Z,101246.13
2023-09-06T08:24:25.917Z,101251.66
2023-09-06T08:27:28.795Z,101257.94
2023-09-06T08:30:32.002Z,101257.28
2023-09-06T08:33:35.344Z,101255.41
2023-09-06T08:36:38.147Z,101257.31
2023-09-06T08:39:40.744Z,101261.91
2023-09-06T08:42:45.810Z,101255.31
2023-09-06T08:45:51.538Z,101250.91
2023-09-06T08:48:57.240Z,101246.97
2023-09-06T08:52:01.910Z,101248.44
2023-09-06T08:55:06.246Z,101245.88
2023-09-06T08:58:08.697Z,101242.81
2023-09-06T09:01:11.528Z,101245.34
2023-09-06T09:04:14.598Z,101248.50
2023-09-06T09:07:19.435Z,101237.34
2023-09-06T09:10:23.084Z,101250.50
2023-09-06T09:13:25.554Z,101243.56
2023-09-06T09:16:28.095Z,101247.44
2023-09-06T09:19:30.670Z,101251.50
2023-09-06T09:22:39.132Z,101245.56
2023-09-06T09:25:49.782Z,101238.38
2023-09-06T09:28:52.280Z,101248.78
2023-09-06T09:32:01.371Z,101236.09
2023-09-06T09:35:05.466Z,101237.28
2023-09-06T09:38:14.260Z,101245.38
2023-09-06T09:41:17.104Z,101247.28
2023-09-06T09:44:20.942Z,101234.09
2023-09-06T09:47:47.407Z,101242.28
2023-09-06T09:50:48.724Z,101234.63
2023-09-06T09:53:51.197Z,101235.00
2023-09-06T09:57:07.980Z,101235.63
2023-09-06T10:00:13.710Z,101252.53
2023-09-06T10:03:17.715Z,101241.00
2023-09-06T10:06:21.284Z,101233.22
2023-09-06T10:09:23.942Z,101232.59
2023-09-06T10:12:28.090Z,101224.94
2023-09-06T10:15:31.000Z,101222.94
2023-09-06T10:18:34.056Z,101217.22
2023-09-06T10:21:37.233Z,101214.09
2023-09-06T10:24:41.469Z,101215.88
2023-09-06T10:27:47.769Z,101209.00
2023-09-06T10:30:59.252Z,101210.94
2023-09-06T10:34:01.847Z,101210.41
2023-09-06T10:37:07.555Z,101208.53
2023-09-06T10:40:13.706Z,101208.88
2023-09-06T10:43:45.546Z,101192.81
2023-09-06T10:46:49.773Z,101200.16
2023-09-06T10:50:11.259Z,101202.78
2023-09-06T10:53:19.182Z,101201.25
2023-09-06T10:56:29.372Z,101204.47
2023-09-06T10:59:32.650Z,101192.53
2023-09-06T11:02:39.091Z,101184.50
2023-09-06T11:05:44.328Z,101186.47
2023-09-06T11:08:47.449Z,101182.84
2023-09-06T11:11:53.986Z,101175.44
2023-09-06T11:14:56.529Z,101168.69
2023-09-06T11:18:00.519Z,101166.16
2023-09-06T11:21:03.340Z,101163.88
2023-09-06T11:24:06.377Z,101159.81
2023-09-06T11:27:38.969Z,101160.41
2023-09-06T11:30:43.145Z,101161.69
2023-09-06T11:33:46.055Z,101159.00
2023-09-06T11:36:49.933Z,101147.47
2023-09-06T11:39:52.762Z,101152.50
2023-09-06T11:43:05.598Z,101145.69
2023-09-06T11:46:09.950Z,101141.31
2023-09-06T11:49:15.877Z,101135.44
2023-09-06T11:52:20.255Z,101131.69
2023-09-06T11:55:23.120Z,101126.53
2023-09-06T11:58:27.743Z,101120.69
2023-09-06T12:01:33.660Z,101130.13
2023-09-06T12:04:36.522Z,101127.72
2023-09-06T12:07:39.324Z,101127.00
2023-09-06T12:10:46.745Z,101125.00
2023-09-06T12:13:49.853Z,101112.41
2023-09-06T12:16:52.614Z,101108.09
2023-09-06T12:20:00.124Z,101110.72
2023-09-06T12:23:05.614Z,101109.16
2023-09-06T12:26:08.044Z,101109.31
2023-09-06T12:29:10.503Z,101101.69
2023-09-06T12:32:13.330Z,101102.03
2023-09-06T12:35:16.794Z,101105.09
2023-09-06T12:38:19.351Z,101095.41
2023-09-06T12:41:22.016Z,101081.66
2023-09-06T12:44:24.608Z,101086.13
2023-09-06T12:47:27.405Z,101078.16
2023-09-06T12:50:29.931Z,101089.78
2023-09-06T12:53:33.609Z,101074.88
2023-09-06T12:56:36.451Z,101076.78
2023-09-06T12:59:41.057Z,101078.59
2023-09-06T13:02:43.936Z,101068.56
2023-09-06T13:05:50.090Z,101062.22
2023-09-06T13:08:53.051Z,101058.97
2023-09-06T13:11:56.493Z,101062.03
2023-09-06T13:15:00.154Z,101058.84
2023-09-06T13:18:03.206Z,101054.19
2023-09-06T13:21:06.962Z,101055.66
2023-09-06T13:24:09.816Z,101052.00
2023-09-06T13:27:12.595Z,101043.22
2023-09-06T13:30:15.462Z,101039.88
2023-09-06T13:33:17.923Z,101039.75
2023-09-06T13:36:20.665Z,101040.75
2023-09-06T13:39:23.182Z,101039.09
2023-09-06T13:42:26.242Z,101041.03
2023-09-06T13:45:30.747Z,101034.88
2023-09-06T13:48:33.546Z,101029.63
2023-09-06T13:51:36.912Z,101032.44
2023-09-06T13:54:39.661Z,101031.56
2023-09-06T13:57:42.391Z,101021.44
2023-09-06T14:00:44.940Z,101023.91
2023-09-06T14:03:47.484Z,101019.81
2023-09-06T14:06:50.454Z,101023.78
2023-09-06T14:09:52.989Z,101015.91
2023-09-06T14:12:55.793Z,101022.69
2023-09-06T14:15:59.524Z,101023.13
2023-09-06T14:19:02.072Z,101019.19
2023-09-06T14:22:20.661Z,101020.03
2023-09-06T14:25:23.437Z,101017.25
2023-09-06T14:28:26.272Z,101016.13
2023-09-06T14:31:29.001Z,101006.81
2023-09-06T14:34:31.839Z,101013.78
2023-09-06T14:37:34.640Z,101000.81
2023-09-06T14:40:42.450Z,101001.19
2023-09-06T14:43:44.910Z,101004.47
2023-09-06T14:46:49.458Z,100999.22
2023-09-06T14:49:53.141Z,101004.97
2023-09-06T14:52:56.205Z,100995.69
2023-09-06T14:56:03.202Z,100998.06
2023-09-06T14:59:06.042Z,100991.97
2023-09-06T15:02:09.060Z,100994.03
2023-09-06T15:05:11.866Z,100994.41
2023-09-06T15:08:14.375Z,100995.69
2023-09-06T15:11:16.877Z,101001.09
2023-09-06T15:14:20.120Z,101000.28
2023-09-06T15:17:23.690Z,100996.97
2023-09-06T15:20:26.253Z,100997.66
2023-09-06T15:23:29.582Z,100989.38
2023-09-06T15:26:32.058Z,100996.13
2023-09-06T15:29:34.612Z,101002.94
2023-09-06T15:32:37.270Z,100998.84
2023-09-06T15:35:39.986Z,100999.78
2023-09-06T15:38:42.455Z,101001.94
2023-09-06T15:41:45.385Z,101000.59
2023-09-06T15:44:47.818Z,101001.56
2023-09-06T15:47:51.225Z,100995.38
2023-09-06T15:50:53.805Z,101006.72
2023-09-06T15:53:56.381Z,101001.69
2023-09-06T15:56:59.749Z,101000.97
2023-09-06T16:00:12.800Z,101003.47
2023-09-06T16:03:23.318Z,100999.63
2023-09-06T16:06:27.117Z,101012.16
2023-09-06T16:09:29.689Z,101003.66
2023-09-06T16:12:32.697Z,101009.53
2023-09-06T16:15:35.146Z,101011.09
2023-09-06T16:18:37.996Z,101011.47
2023-09-06T16:21:41.861Z,101014.66
2023-09-06T16:24:44.328Z,101023.25
2023-09-06T16:27:47.185Z,101018.59
2023-09-06T16:30:49.933Z,101023.66
2023-09-06T16:33:53.427Z,101009.63
2023-09-06T16:36:56.074Z,101015.06
2023-09-06T16:39:58.943Z,101009.59
2023-09-06T16:43:01.667Z,101015.78
2023-09-06T16:46:05.829Z,101018.50
2023-09-06T16:49:08.496Z,101024.34
2023-09-06T16:52:11.182Z,101017.34
2023-09-06T16:55:15.014Z,101028.19
2023-09-06T16:58:17.733Z,101029.28
2023-09-06T17:01:21.958Z,101019.09
2023-09-06T17:04:24.590Z,101032.31
2023-09-06T17:07:27.125Z,101017.13
2023-09-06T17:10:31.129Z,101031.44
2023-09-06T17:13:33.624Z,101035.69
2023-09-06T17:16:36.370Z,101040.53
2023-09-06T17:19:38.857Z,101038.22
2023-09-06T17:22:45.479Z,101046.22
2023-09-06T17:25:50.800Z,101041.72
2023-09-06T17:28:53.462Z,101048.16
2023-09-06T17:31:55.910Z,101044.94
2023-09-06T17:34:58.436Z,101055.53
2023-09-06T17:38:08.879Z,101045.81
2023-09-06T17:41:11.325Z,101049.81
2023-09-06T17:44:13.921Z,101058.84
2023-09-06T17:47:16.350Z,101057.34
2023-09-06T17:50:19.368Z,101058.44
2023-09-06T17:53:26.571Z,101068.47
2023-09-06T17:56:30.389Z,101068.53
2023-09-06T17:59:33.277Z,101075.09
2023-09-06T18:02:39.035Z,101074.13
2023-09-06T18:05:47.420Z,101076.94
2023-09-06T18:08:51.946Z,101078.84
2023-09-06T18:11:54.738Z,101074.56
2023-09-06T18:14:59.930Z,101075.06
2023-09-06T18:18:10.179Z,101069.66
2023-09-06T18:21:15.072Z,101067.41
2023-09-06T18:24:18.028Z,101078.06
2023-09-06T18:27:20.742Z,101078.69
2023-09-06T18:30:25.789Z,101081.78
2023-09-06T18:33:29.213Z,101085.72
2023-09-06T18:36:32.760Z,101077.69
2023-09-06T18:39:35.289Z,101082.59
2023-09-06T18:42:37.696Z,101078.34
2023-09-06T18:45:41.965Z,101083.09
2023-09-06T18:48:44.641Z,101088.44
2023-09-06T18:51:47.239Z,101082.16
2023-09-06T18:54:49.689Z,101082.69
2023-09-06T18:58:04.863Z,101089.66
2023-09-06T19:01:12.707Z,101082.16
2023-09-06T19:04:15.191Z,101085.72
2023-09-06T19:07:17.610Z,101081.28
2023-09-06T19:10:20.046Z,101088.50
2023-09-06T19:13:22.565Z,101083.47
2023-09-06T19:16:26.100Z,101086.00
2023-09-06T19:19:33.759Z,101085.88
2023-09-06T19:22:36.230Z,101078.81
2023-09-06T19:25:44.183Z,101082.38
2023-09-06T19:28:46.794Z,101078.00
2023-09-06T19:31:51.894Z,101083.75
2023-09-06T19:34:54.356Z,101094.28
2023-09-06T19:37:56.939Z,101086.97
2023-09-06T19:40:59.502Z,101089.69
2023-09-06T19:44:01.950Z,101085.22
2023-09-06T19:47:04.654Z,101098.88
2023-09-06T19:50:08.106Z,101095.63
2023-09-06T19:53:10.762Z,101095.03
2023-09-06T19:56:16.058Z,101093.38
2023-09-06T19:59:18.667Z,101101.47
2023-09-06T20:02:21.533Z,101098.81
2023-09-06T20:05:25.413Z,101095.69
2023-09-06T20:08:28.418Z,101110.28
2023-09-06T20:11:33.103Z,101111.84
2023-09-06T20:14:35.564Z,101105.91
2023-09-06T20:17:38.303Z,101106.44
2023-09-06T20:20:41.321Z,101112.19
2023-09-06T20:23:44.464Z,101112.63
2023-09-06T20:26:47.070Z,101119.22
2023-09-06T20:29:49.620Z,101117.56
2023-09-06T20:32:52.103Z,101115.00
2023-09-06T20:35:58.608Z,101117.56
2023-09-06T20:39:01.308Z,101124.22
2023-09-06T20:42:06.317Z,101123.44
2023-09-06T20:45:09.027Z,101121.41
2023-09-06T20:48:12.943Z,101110.97
2023-09-06T20:51:15.588Z,101119.50
2023-09-06T20:54:17.991Z,101109.94
2023-09-06T20:57:20.540Z,101106.25
2023-09-06T21:00:23.872Z,101110.50
2023-09-06T21:03:26.484Z,101114.31
2023-09-06T21:06:29.017Z,101112.03
2023-09-06T21:09:31.370Z,101108.91
2023-09-06T21:12:36.286Z,101104.75
2023-09-06T21:15:39.095Z,101111.59
2023-09-06T21:18:41.687Z,101112.38
2023-09-06T21:21:44.231Z,101110.47
2023-09-06T21:24:46.717Z,101115.00
2023-09-06T21:27:49.249Z,101114.88
2023-09-06T21:30:51.773Z,101114.22
2023-09-06T21:33:54.264Z,101119.28
2023-09-06T21:36:56.924Z,101117.78
2023-09-06T21:40:00.765Z,101128.53
2023-09-06T21:43:15.994Z,101128.97
2023-09-06T21:46:20.697Z,101128.50
2023-09-06T21:49:23.148Z,101134.41
2023-09-06T21:52:25.647Z,101132.59
2023-09-06T21:55:28.206Z,101138.31
2023-09-06T21:58:34.679Z,101137.72
2023-09-06T22:01:52.194Z,101136.00
2023-09-06T22:05:13.148Z,101140.59
2023-09-06T22:08:34.050Z,101137.19
2023-09-06T22:11:55.209Z,101134.38
2023-09-06T22:14:59.249Z,101141.72
2023-09-06T22:18:02.187Z,101149.06
2023-09-06T22:21:05.543Z,101150.44
2023-09-06T22:24:10.153Z,101146.97
2023-09-06T22:27:12.557Z,101147.00
2023-09-06T22:30:15.310Z,101138.06
2023-09-06T22:33:17.818Z,101141.16
2023-09-06T22:36:20.243Z,101144.13
2023-09-06T22:39:22.670Z,101146.75
2023-09-06T22:42:25.030Z,101153.59
2023-09-06T22:45:28.576Z,101155.00
2023-09-06T22:48:47.972Z,101155.19
2023-09-06T22:51:53.509Z,101156.75
2023-09-06T22:54:56.152Z,101150.50
2023-09-06T22:57:59.348Z,101146.84
2023-09-06T23:01:08.694Z,101153.94
2023-09-06T23:04:12.364Z,101152.53
2023-09-06T23:07:16.404Z,101148.91
2023-09-06T23:10:20.956Z,101144.81
2023-09-06T23:13:23.794Z,101143.84
2023-09-06T23:16:26.343Z,101144.88
2023-09-06T23:19:33.589Z,101142.03
2023-09-06T23:22:42.069Z,101146.13
2023-09-06T23:25:47.296Z,101146.47
2023-09-06T23:28:50.058Z,101142.53
2023-09-06T23:31:55.762Z,101148.13
2023-09-06T23:34:59.361Z,101143.69
2023-09-06T23:38:07.406Z,101146.13
2023-09-06T23:41:12.786Z,101145.13
2023-09-06T23:44:15.219Z,101135.34
2023-09-06T23:47:17.700Z,101150.50
2023-09-06T23:50:20.768Z,101139.28
2023-09-06T23:53:26.225Z,101134.88
2023-09-06T23:56:28.634Z,101143.44
2023-09-06T23:59:31.288Z,101144.88
